createdAt,value
2023-09-05T00:02:06.262Z,75.49
2023-09-05T00:04:32.769Z,74.94
2023-09-05T00:06:59.102Z,75.05
2023-09-05T00:09:25.448Z,75.54
2023-09-05T00:11:51.849Z,75.36
2023-09-05T00:14:18.265Z,75.26
2023-09-05T00:16:45.009Z,75.28
2023-09-05T00:19:11.975Z,75.81
2023-09-05T00:21:38.445Z,75.96
2023-09-05T00:24:34.472Z,77.89
2023-09-05T00:27:03.166Z,75.78
2023-09-05T00:29:30.021Z,76.42
2023-09-05T00:31:57.608Z,75.60
2023-09-05T00:34:24.049Z,75.81
2023-09-05T00:36:50.401Z,75.74
2023-09-05T00:39:16.776Z,75.68
2023-09-05T00:41:43.094Z,75.67
2023-09-05T00:44:09.421Z,75.92
2023-09-05T00:46:36.097Z,76.15
2023-09-05T00:49:02.800Z,76.34
2023-09-05T00:51:30.890Z,75.83
2023-09-05T00:53:57.322Z,75.77
2023-09-05T00:56:23.660Z,75.75
2023-09-05T00:58:50.059Z,76.06
2023-09-05T01:01:16.770Z,75.74
2023-09-05T01:03:43.163Z,76.33
2023-09-05T01:06:19.765Z,76.21
2023-09-05T01:09:02.981Z,76.22
2023-09-05T01:11:29.918Z,76.25
2023-09-05T01:13:56.250Z,76.62
2023-09-05T01:16:22.637Z,76.47
2023-09-05T01:18:49.078Z,76.61
2023-09-05T01:21:29.338Z,77.28
2023-09-05T01:24:18.305Z,76.83
2023-09-05T01:26:45.090Z,76.46
2023-09-05T01:29:12.617Z,76.56
2023-09-05T01:31:39.858Z,76.51
2023-09-05T01:34:06.441Z,76.58
2023-09-05T01:36:32.777Z,76.71
2023-09-05T01:38:59.383Z,76.89
2023-09-05T01:41:25.803Z,77.21
2023-09-05T01:43:52.125Z,77.47
2023-09-05T01:46:18.477Z,77.59
2023-09-05T01:48:45.002Z,78.25
2023-09-05T01:51:11.341Z,78.45
2023-09-05T01:53:37.763Z,78.27
2023-09-05T01:56:04.254Z,78.69
2023-09-05T01:58:30.582Z,78.33
2023-09-05T02:01:02.413Z,81.29
2023-09-05T02:03:28.988Z,80.07
2023-09-05T02:05:55.724Z,79.24
2023-09-05T02:08:22.126Z,79.13
2023-09-05T02:10:48.456Z,79.13
2023-09-05T02:13:14.831Z,79.17
2023-09-05T02:15:44.246Z,79.26
2023-09-05T02:18:10.711Z,79.41
2023-09-05T02:20:40.376Z,78.77
2023-09-05T02:23:07.395Z,78.96
2023-09-05T02:25:34.255Z,79.03
2023-09-05T02:28:00.969Z,78.48
2023-09-05T02:30:27.636Z,78.78
2023-09-05T02:32:54.849Z,79.32
2023-09-05T02:35:25.436Z,79.06
2023-09-05T02:37:53.332Z,79.23
2023-09-05T02:40:20.191Z,79.64
2023-09-05T02:42:46.826Z,79.57
2023-09-05T02:45:14.119Z,79.11
2023-09-05T02:47:41.408Z,79.53
2023-09-05T02:50:08.528Z,79.77
2023-09-05T02:52:47.025Z,79.45
2023-09-05T02:55:14.407Z,79.78
2023-09-05T02:57:40.755Z,79.49
2023-09-05T03:00:07.811Z,79.60
2023-09-05T03:02:34.227Z,79.41
2023-09-05T03:05:00.661Z,79.57
2023-09-05T03:07:27.016Z,79.77
2023-09-05T03:09:53.641Z,79.98
2023-09-05T03:12:19.978Z,79.83
2023-09-05T03:14:46.619Z,79.79
2023-09-05T03:17:12.971Z,79.22
2023-09-05T03:19:40.328Z,79.40
2023-09-05T03:22:07.164Z,79.57
2023-09-05T03:24:34.699Z,79.47
2023-09-05T03:27:01.393Z,78.88
2023-09-05T03:29:27.716Z,79.21
2023-09-05T03:31:54.444Z,79.46
2023-09-05T03:34:20.995Z,79.78
2023-09-05T03:36:47.369Z,79.79
2023-09-05T03:39:13.781Z,79.69
2023-09-05T03:41:40.236Z,80.03
2023-09-05T03:44:06.742Z,79.78
2023-09-05T03:46:33.184Z,80.00
2023-09-05T03:48:59.615Z,79.91
2023-09-05T03:51:26.010Z,79.97
2023-09-05T03:53:52.422Z,79.91
2023-09-05T03:56:18.753Z,80.24
2023-09-05T03:58:45.083Z,79.73
2023-09-05T04:01:16.037Z,79.88
2023-09-05T04:03:42.677Z,80.38
2023-09-05T04:06:09.218Z,80.23
2023-09-05T04:08:35.563Z,80.30
2023-09-05T04:11:02.341Z,80.46
2023-09-05T04:13:29.073Z,80.10
2023-09-05T04:15:56.013Z,80.33
2023-09-05T04:18:22.395Z,80.04
2023-09-05T04:20:56.853Z,79.88
2023-09-05T04:23:23.184Z,79.65
2023-09-05T04:25:56.598Z,81.15
2023-09-05T04:28:22.967Z,79.79
2023-09-05T04:30:49.362Z,79.68
2023-09-05T04:33:15.760Z,79.64
2023-09-05T04:35:42.124Z,79.42
2023-09-05T04:38:08.514Z,79.72
2023-09-05T04:40:34.853Z,79.39
2023-09-05T04:43:01.285Z,79.21
2023-09-05T04:45:27.721Z,79.02
2023-09-05T04:47:54.083Z,78.86
2023-09-05T04:50:20.611Z,78.62
2023-09-05T04:52:47.035Z,78.51
2023-09-05T04:55:13.405Z,78.43
2023-09-05T04:57:39.733Z,78.61
2023-09-05T05:00:06.888Z,78.84
2023-09-05T05:02:33.297Z,78.68
2023-09-05T05:04:59.631Z,79.05
2023-09-05T05:07:25.941Z,78.71
2023-09-05T05:09:52.647Z,78.53
2023-09-05T05:12:18.999Z,78.83
2023-09-05T05:14:45.353Z,78.47
2023-09-05T05:17:11.844Z,78.56
2023-09-05T05:19:38.184Z,78.71
2023-09-05T05:22:04.699Z,78.74
2023-09-05T05:24:31.255Z,78.55
2023-09-05T05:26:57.735Z,78.45
2023-09-05T05:29:25.161Z,78.20
2023-09-05T05:31:51.482Z,77.72
2023-09-05T05:34:17.865Z,78.03
2023-09-05T05:36:44.346Z,77.54
2023-09-05T05:39:10.687Z,77.81
2023-09-05T05:41:37.079Z,77.87
2023-09-05T05:44:53.986Z,77.81
2023-09-05T05:47:30.500Z,77.51
2023-09-05T05:49:56.828Z,77.18
2023-09-05T05:52:23.825Z,76.84
2023-09-05T05:54:55.427Z,76.36
2023-09-05T05:57:21.746Z,76.48
2023-09-05T05:59:48.246Z,75.55
2023-09-05T06:02:14.694Z,75.35
2023-09-05T06:04:41.019Z,75.54
2023-09-05T06:07:07.431Z,74.95
2023-09-05T06:09:33.936Z,74.17
2023-09-05T06:12:00.301Z,74.52
2023-09-05T06:14:26.685Z,73.44
2023-09-05T06:16:53.303Z,73.35
2023-09-05T06:19:19.749Z,72.74
2023-09-05T06:21:46.097Z,71.86
2023-09-05T06:24:12.547Z,72.06
2023-09-05T06:26:38.996Z,71.62
2023-09-05T06:29:06.303Z,70.89
2023-09-05T06:31:32.830Z,69.95
2023-09-05T06:33:59.231Z,69.88
2023-09-05T06:36:25.552Z,69.75
2023-09-05T06:38:51.996Z,69.17
2023-09-05T06:41:18.490Z,68.23
2023-09-05T06:43:44.827Z,68.41
2023-09-05T06:46:11.216Z,67.82
2023-09-05T06:48:40.247Z,67.77
2023-09-05T06:51:06.908Z,67.74
2023-09-05T06:53:33.687Z,66.42
2023-09-05T06:56:00.057Z,66.60
2023-09-05T06:58:27.670Z,66.76
2023-09-05T07:00:54.697Z,66.15
2023-09-05T07:03:25.866Z,66.42
2023-09-05T07:08:24.507Z,64.67
2023-09-05T07:10:51.057Z,64.62
2023-09-05T07:13:17.413Z,63.98
2023-09-05T07:15:44.601Z,63.99
2023-09-05T07:18:11.023Z,62.47
2023-09-05T07:20:37.379Z,63.56
2023-09-05T07:23:03.856Z,63.19
2023-09-05T07:25:30.381Z,62.67
2023-09-05T07:27:58.548Z,62.43
2023-09-05T07:30:26.258Z,61.65
2023-09-05T07:32:54.270Z,61.85
2023-09-05T07:35:20.749Z,62.54
2023-09-05T07:37:47.066Z,62.27
2023-09-05T07:40:13.597Z,62.34
2023-09-05T07:42:40.159Z,61.50
2023-09-05T07:45:07.060Z,60.37
2023-09-05T07:47:33.420Z,60.23
2023-09-05T07:49:59.778Z,60.57
2023-09-05T07:52:26.215Z,59.26
2023-09-05T07:54:52.542Z,59.07
2023-09-05T07:57:19.017Z,58.34
2023-09-05T07:59:45.775Z,58.50
2023-09-05T08:02:12.212Z,58.68
2023-09-05T08:04:38.808Z,58.35
2023-09-05T08:07:08.097Z,57.90
2023-09-05T08:09:34.977Z,56.52
2023-09-05T08:12:01.340Z,57.20
2023-09-05T08:14:28.009Z,56.42
2023-09-05T08:16:54.462Z,56.48
2023-09-05T08:19:20.801Z,55.86
2023-09-05T08:21:47.236Z,55.02
2023-09-05T08:24:13.540Z,55.33
2023-09-05T08:26:39.968Z,55.11
2023-09-05T08:29:06.286Z,55.37
2023-09-05T08:31:32.889Z,54.87
2023-09-05T08:33:59.425Z,54.42
2023-09-05T08:36:26.001Z,54.46
2023-09-05T08:38:52.415Z,54.63
2023-09-05T08:41:18.763Z,53.89
2023-09-05T08:43:45.233Z,53.97
2023-09-05T08:46:13.100Z,54.19
2023-09-05T08:48:51.729Z,54.38
2023-09-05T08:51:22.135Z,54.04
2023-09-05T08:54:01.227Z,53.27
2023-09-05T08:56:27.877Z,53.12
2023-09-05T08:58:56.230Z,53.48
2023-09-05T09:01:23.789Z,53.40
2023-09-05T09:03:50.716Z,53.95
2023-09-05T09:06:17.106Z,53.05
2023-09-05T09:08:44.893Z,52.11
2023-09-05T09:11:12.307Z,52.13
2023-09-05T09:13:39.292Z,51.65
2023-09-05T09:16:06.002Z,50.68
2023-09-05T09:18:33.127Z,51.16
2023-09-05T09:21:05.967Z,50.14
2023-09-05T09:23:33.886Z,51.05
2023-09-05T09:26:01.089Z,50.23
2023-09-05T09:28:29.307Z,50.17
2023-09-05T09:31:04.255Z,51.15
2023-09-05T09:33:32.748Z,50.25
2023-09-05T09:36:03.133Z,49.71
2023-09-05T09:38:29.549Z,49.82
2023-09-05T09:40:56.389Z,50.52
2023-09-05T09:43:22.972Z,49.87
2023-09-05T09:45:49.390Z,49.72
2023-09-05T09:48:16.887Z,49.74
2023-09-05T09:50:43.482Z,49.41
2023-09-05T09:53:13.062Z,49.08
2023-09-05T09:55:44.527Z,49.15
2023-09-05T09:58:15.296Z,47.59
2023-09-05T10:00:45.225Z,48.54
2023-09-05T10:03:12.007Z,49.34
2023-09-05T10:05:39.696Z,48.45
2023-09-05T10:08:06.470Z,48.53
2023-09-05T10:10:33.978Z,48.44
2023-09-05T10:13:02.835Z,48.38
2023-09-05T10:15:31.220Z,48.53
2023-09-05T10:17:58.901Z,47.88
2023-09-05T10:20:28.486Z,46.73
2023-09-05T10:22:55.386Z,46.92
2023-09-05T10:25:23.982Z,47.30
2023-09-05T10:27:51.120Z,47.00
2023-09-05T10:30:17.536Z,45.84
2023-09-05T10:32:47.776Z,45.79
2023-09-05T10:35:19.072Z,45.80
2023-09-05T10:37:52.014Z,44.73
2023-09-05T10:40:18.461Z,45.19
2023-09-05T10:42:51.512Z,45.20
2023-09-05T10:45:23.756Z,44.74
2023-09-05T10:47:57.323Z,45.81
2023-09-05T10:50:23.806Z,45.12
2023-09-05T10:53:10.211Z,44.65
2023-09-05T10:55:37.625Z,45.66
2023-09-05T10:58:04.025Z,44.30
2023-09-05T11:00:30.479Z,44.45
2023-09-05T11:03:08.709Z,43.71
2023-09-05T11:05:35.230Z,44.35
2023-09-05T11:08:01.624Z,43.20
2023-09-05T11:10:35.251Z,44.01
2023-09-05T11:13:12.239Z,42.98
2023-09-05T11:15:39.461Z,43.33
2023-09-05T11:18:07.093Z,43.55
2023-09-05T11:20:42.497Z,43.11
2023-09-05T11:23:16.914Z,42.85
2023-09-05T11:25:44.143Z,42.66
2023-09-05T11:28:11.573Z,43.40
2023-09-05T11:30:38.984Z,43.66
2023-09-05T11:33:11.107Z,43.53
2023-09-05T11:35:37.621Z,42.44
2023-09-05T11:38:04.202Z,41.23
2023-09-05T11:40:30.682Z,42.44
2023-09-05T11:43:08.967Z,41.14
2023-09-05T11:45:36.293Z,41.15
2023-09-05T11:48:05.638Z,41.73
2023-09-05T11:50:32.357Z,41.60
2023-09-05T11:53:04.190Z,40.75
2023-09-05T11:55:31.438Z,40.71
2023-09-05T11:57:59.398Z,40.02
2023-09-05T12:00:26.960Z,38.98
2023-09-05T12:02:55.330Z,40.35
2023-09-05T12:05:21.878Z,40.29
2023-09-05T12:07:56.716Z,37.73
2023-09-05T12:10:26.651Z,38.03
2023-09-05T12:12:58.067Z,36.90
2023-09-05T12:15:37.866Z,37.46
2023-09-05T12:18:06.724Z,37.42
2023-09-05T12:20:34.132Z,37.22
2023-09-05T12:23:01.130Z,37.97
2023-09-05T12:25:28.495Z,37.94
2023-09-05T12:28:13.276Z,37.53
2023-09-05T12:30:39.577Z,36.44
2023-09-05T12:33:05.939Z,36.00
2023-09-05T12:35:33.977Z,36.01
2023-09-05T12:38:01.953Z,36.96
2023-09-05T12:40:28.863Z,37.82
2023-09-05T12:42:55.917Z,37.71
2023-09-05T12:45:22.240Z,37.76
2023-09-05T12:47:48.703Z,37.01
2023-09-05T12:50:15.051Z,36.56
2023-09-05T12:52:42.356Z,35.94
2023-09-05T12:55:08.959Z,36.61
2023-09-05T12:57:35.279Z,36.68
2023-09-05T13:00:01.842Z,36.29
2023-09-05T13:02:28.288Z,36.39
2023-09-05T13:04:54.695Z,36.31
2023-09-05T13:07:21.053Z,35.02
2023-09-05T13:09:47.471Z,35.45
2023-09-05T13:12:13.869Z,34.49
2023-09-05T13:14:40.233Z,35.22
2023-09-05T13:17:06.686Z,35.38
2023-09-05T13:19:33.014Z,35.21
2023-09-05T13:21:59.460Z,35.25
2023-09-05T13:24:25.795Z,36.19
2023-09-05T13:26:52.249Z,34.63
2023-09-05T13:29:18.660Z,35.09
2023-09-05T13:31:45.075Z,34.76
2023-09-05T13:34:11.495Z,35.23
2023-09-05T13:36:37.883Z,34.87
2023-09-05T13:39:04.662Z,35.69
2023-09-05T13:41:31.160Z,33.98
2023-09-05T13:43:57.505Z,35.22
2023-09-05T13:46:23.858Z,34.17
2023-09-05T13:48:50.337Z,34.68
2023-09-05T13:51:18.365Z,33.22
2023-09-05T13:53:44.692Z,34.83
2023-09-05T13:56:11.222Z,34.61
2023-09-05T13:58:37.534Z,33.65
2023-09-05T14:01:03.825Z,33.75
2023-09-05T14:03:30.403Z,33.79
2023-09-05T14:05:56.954Z,33.11
2023-09-05T14:08:23.311Z,32.78
2023-09-05T14:10:49.657Z,33.75
2023-09-05T14:13:16.113Z,33.92
2023-09-05T14:15:42.759Z,34.20
2023-09-05T14:18:09.204Z,32.43
2023-09-05T14:20:35.658Z,33.93
2023-09-05T14:23:02.002Z,33.17
2023-09-05T14:25:28.360Z,33.57
2023-09-05T14:27:54.809Z,34.16
2023-09-05T14:30:21.156Z,33.21
2023-09-05T14:32:47.552Z,33.57
2023-09-05T14:35:13.879Z,33.63
2023-09-05T14:37:40.208Z,33.60
2023-09-05T14:40:08.198Z,33.26
2023-09-05T14:42:37.553Z,34.12
2023-09-05T14:45:05.424Z,32.91
2023-09-05T14:47:31.842Z,33.09
2023-09-05T14:49:58.310Z,33.67
2023-09-05T14:52:31.880Z,32.88
2023-09-05T14:54:58.231Z,33.64
2023-09-05T14:57:24.763Z,32.93
2023-09-05T14:59:51.111Z,32.92
2023-09-05T15:02:17.551Z,32.59
2023-09-05T15:04:44.366Z,33.21
2023-09-05T15:07:10.838Z,33.42
2023-09-05T15:09:37.275Z,33.28
2023-09-05T15:12:05.008Z,33.64
2023-09-05T15:14:31.339Z,33.69
2023-09-05T15:16:57.988Z,34.04
2023-09-05T15:19:24.642Z,34.35
2023-09-05T15:21:51.088Z,34.58
2023-09-05T15:24:17.592Z,36.34
2023-09-05T15:26:43.954Z,37.41
2023-09-05T15:29:10.383Z,38.47
2023-09-05T15:31:36.911Z,39.57
2023-09-05T15:34:03.426Z,40.05
2023-09-05T15:36:29.899Z,40.56
2023-09-05T15:38:56.284Z,40.51
2023-09-05T15:41:22.694Z,41.44
2023-09-05T15:43:49.024Z,41.40
2023-09-05T15:46:15.653Z,41.97
2023-09-05T15:48:42.134Z,41.84
2023-09-05T15:51:09.070Z,41.80
2023-09-05T15:53:35.516Z,42.53
2023-09-05T15:56:01.834Z,42.26
2023-09-05T15:58:28.628Z,41.80
2023-09-05T16:00:55.542Z,41.47
2023-09-05T16:03:22.983Z,41.24
2023-09-05T16:05:49.390Z,40.67
2023-09-05T16:08:15.788Z,40.60
2023-09-05T16:10:42.194Z,40.78
2023-09-05T16:13:08.541Z,40.17
2023-09-05T16:15:35.042Z,40.23
2023-09-05T16:18:01.414Z,40.04
2023-09-05T16:20:29.330Z,40.25
2023-09-05T16:22:55.848Z,40.49
2023-09-05T16:25:22.269Z,40.28
2023-09-05T16:27:48.825Z,40.48
2023-09-05T16:30:15.346Z,39.67
2023-09-05T16:32:41.840Z,40.09
2023-09-05T16:35:08.506Z,40.48
2023-09-05T16:37:34.830Z,40.06
2023-09-05T16:40:01.440Z,39.89
2023-09-05T16:42:27.915Z,40.19
2023-09-05T16:44:54.372Z,40.31
2023-09-05T16:47:20.884Z,40.11
2023-09-05T16:49:47.247Z,39.99
2023-09-05T16:52:13.732Z,39.72
2023-09-05T16:54:40.079Z,39.54
2023-09-05T16:57:06.425Z,39.57
2023-09-05T16:59:32.768Z,40.01
2023-09-05T17:01:59.060Z,40.10
2023-09-05T17:04:25.620Z,40.35
2023-09-05T17:06:52.861Z,40.42
2023-09-05T17:09:19.293Z,40.29
2023-09-05T17:11:45.711Z,40.51
2023-09-05T17:14:12.054Z,40.74
2023-09-05T17:16:38.424Z,40.44
2023-09-05T17:19:04.839Z,40.08
2023-09-05T17:21:31.300Z,40.25
2023-09-05T17:23:57.682Z,40.50
2023-09-05T17:26:24.183Z,40.77
2023-09-05T17:28:50.564Z,41.15
2023-09-05T17:31:17.041Z,40.95
2023-09-05T17:33:43.494Z,41.74
2023-09-05T17:36:13.258Z,42.12
2023-09-05T17:38:40.744Z,42.31
2023-09-05T17:41:08.173Z,42.60
2023-09-05T17:43:35.569Z,42.99
2023-09-05T17:46:06.225Z,43.47
2023-09-05T17:48:33.379Z,43.76
2023-09-05T17:50:59.863Z,44.37
2023-09-05T17:53:26.997Z,44.83
2023-09-05T17:55:53.508Z,45.46
2023-09-05T17:58:20.255Z,46.11
2023-09-05T18:00:46.691Z,46.40
2023-09-05T18:03:13.314Z,46.72
2023-09-05T18:05:47.376Z,48.29
2023-09-05T18:08:13.869Z,47.61
2023-09-05T18:10:40.317Z,48.06
2023-09-05T18:13:06.661Z,48.50
2023-09-05T18:15:33.140Z,49.02
2023-09-05T18:17:59.496Z,49.02
2023-09-05T18:20:25.897Z,49.82
2023-09-05T18:22:52.413Z,49.80
2023-09-05T18:25:19.210Z,50.15
2023-09-05T18:27:45.619Z,50.15
2023-09-05T18:30:12.948Z,50.63
2023-09-05T18:32:39.325Z,50.99
2023-09-05T18:35:05.886Z,51.59
2023-09-05T18:37:32.329Z,52.12
2023-09-05T18:39:58.674Z,52.24
2023-09-05T18:42:25.219Z,52.36
2023-09-05T18:44:51.925Z,53.12
2023-09-05T18:47:18.265Z,53.26
2023-09-05T18:49:44.722Z,53.34
2023-09-05T18:52:11.100Z,53.65
2023-09-05T18:54:41.532Z,54.06
2023-09-05T18:57:08.744Z,54.40
2023-09-05T18:59:35.125Z,54.86
2023-09-05T19:02:01.799Z,54.93
2023-09-05T19:04:28.431Z,54.54
2023-09-05T19:06:54.891Z,54.69
2023-09-05T19:09:23.524Z,54.80
2023-09-05T19:11:51.152Z,54.99
2023-09-05T19:14:17.747Z,55.42
2023-09-05T19:16:44.216Z,56.01
2023-09-05T19:19:14.198Z,55.76
2023-09-05T19:21:40.640Z,56.09
2023-09-05T19:24:07.395Z,56.62
2023-09-05T19:26:33.738Z,56.51
2023-09-05T19:29:00.195Z,57.03
2023-09-05T19:31:26.690Z,56.67
2023-09-05T19:33:53.089Z,56.96
2023-09-05T19:36:19.537Z,57.29
2023-09-05T19:38:45.940Z,57.54
2023-09-05T19:41:12.317Z,57.71
2023-09-05T19:43:38.651Z,59.95
2023-09-05T19:46:05.098Z,58.75
2023-09-05T19:48:31.872Z,58.84
2023-09-05T19:50:58.460Z,58.62
2023-09-05T19:53:25.119Z,58.72
2023-09-05T19:55:51.594Z,59.16
2023-09-05T19:58:17.961Z,59.16
2023-09-05T20:00:47.625Z,59.36
2023-09-05T20:03:14.298Z,59.70
2023-09-05T20:05:41.224Z,59.50
2023-09-05T20:08:07.720Z,59.93
2023-09-05T20:10:34.117Z,60.06
2023-09-05T20:13:00.472Z,60.15
2023-09-05T20:15:27.019Z,60.61
2023-09-05T20:17:53.449Z,60.84
2023-09-05T20:20:19.862Z,61.23
2023-09-05T20:22:46.373Z,61.42
2023-09-05T20:25:12.696Z,61.71
2023-09-05T20:27:39.155Z,62.10
2023-09-05T20:30:06.168Z,62.22
2023-09-05T20:32:32.580Z,62.40
2023-09-05T20:34:59.015Z,62.91
2023-09-05T20:37:25.518Z,63.11
2023-09-05T20:39:51.854Z,63.59
2023-09-05T20:42:18.486Z,64.38
2023-09-05T20:44:44.956Z,64.33
2023-09-05T20:47:11.278Z,64.99
2023-09-05T20:49:37.742Z,65.51
2023-09-05T20:52:04.463Z,65.75
2023-09-05T20:54:30.995Z,67.02
2023-09-05T20:56:57.501Z,66.27
2023-09-05T20:59:23.929Z,66.51
2023-09-05T21:01:50.314Z,66.60
2023-09-05T21:04:16.787Z,66.60
2023-09-05T21:06:45.299Z,67.03
2023-09-05T21:09:11.708Z,67.31
2023-09-05T21:11:38.023Z,67.60
2023-09-05T21:14:04.552Z,67.89
2023-09-05T21:16:30.951Z,68.24
2023-09-05T21:18:57.302Z,68.56
2023-09-05T21:21:24.843Z,68.38
2023-09-05T21:23:51.195Z,69.02
2023-09-05T21:26:17.677Z,68.95
2023-09-05T21:28:44.005Z,69.33
2023-09-05T21:31:10.557Z,69.18
2023-09-05T21:33:37.037Z,70.06
2023-09-05T21:36:03.556Z,70.11
2023-09-05T21:38:30.066Z,70.76
2023-09-05T21:40:56.525Z,71.06
2023-09-05T21:43:23.010Z,71.07
2023-09-05T21:45:49.655Z,72.09
2023-09-05T21:48:16.175Z,72.72
2023-09-05T21:50:42.570Z,72.48
2023-09-05T21:53:08.909Z,72.46
2023-09-05T21:55:35.261Z,72.65
2023-09-05T21:58:01.750Z,72.79
2023-09-05T22:00:28.333Z,74.14
2023-09-05T22:02:55.734Z,74.38
2023-09-05T22:05:22.326Z,73.92
2023-09-05T22:07:48.779Z,73.80
2023-09-05T22:10:15.158Z,73.97
2023-09-05T22:12:41.512Z,73.67
2023-09-05T22:15:08.842Z,73.72
2023-09-05T22:17:35.173Z,73.14
2023-09-05T22:20:01.610Z,72.94
2023-09-05T22:22:28.169Z,73.80
2023-09-05T22:24:54.552Z,73.46
2023-09-05T22:27:20.931Z,73.38
2023-09-05T22:29:47.998Z,73.83
2023-09-05T22:32:14.340Z,74.15
2023-09-05T22:34:40.682Z,74.32
2023-09-05T22:37:07.198Z,74.46
2023-09-05T22:39:33.605Z,74.27
2023-09-05T22:41:59.941Z,74.72
2023-09-05T22:44:26.375Z,74.37
2023-09-05T22:46:52.711Z,74.43
2023-09-05T22:49:19.143Z,74.51
2023-09-05T22:51:45.498Z,74.79
2023-09-05T22:54:12.236Z,75.36
2023-09-05T22:56:38.729Z,75.64
2023-09-05T22:59:05.438Z,75.92
2023-09-05T23:01:31.794Z,75.92
2023-09-05T23:03:58.356Z,76.14
2023-09-05T23:06:24.873Z,76.19
2023-09-05T23:08:51.240Z,76.66
2023-09-05T23:11:17.710Z,76.37
2023-09-05T23:13:44.052Z,76.50
2023-09-05T23:16:10.461Z,77.29
2023-09-05T23:18:37.004Z,77.85
2023-09-05T23:21:03.670Z,77.75
2023-09-05T23:23:30.000Z,78.35
2023-09-05T23:25:56.475Z,77.66
2023-09-05T23:28:22.816Z,77.71
2023-09-05T23:30:49.312Z,77.72
2023-09-05T23:33:15.648Z,77.83
2023-09-05T23:35:42.000Z,77.45
2023-09-05T23:38:09.939Z,78.06
2023-09-05T23:40:36.947Z,77.75
2023-09-05T23:43:04.465Z,77.82
2023-09-05T23:45:31.924Z,78.14
2023-09-05T23:47:58.408Z,78.39
2023-09-05T23:50:24.716Z,78.33
2023-09-05T23:52:51.031Z,78.77
2023-09-05T23:55:17.604Z,78.56
2023-09-05T23:57:43.953Z,78.75
